createdAt,value
2023-05-01T00:00:27.336Z,3.28
2023-05-01T00:02:53.760Z,4.80
2023-05-01T00:05:20.103Z,3.83
2023-05-01T00:07:46.380Z,3.38
2023-05-01T00:10:12.666Z,6.05
2023-05-01T00:12:38.874Z,4.70
2023-05-01T00:15:05.546Z,4.45
2023-05-01T00:17:31.857Z,3.40
2023-05-01T00:20:02.955Z,4.13
2023-05-01T00:22:30.253Z,4.13
2023-05-01T00:24:56.469Z,6.45
2023-05-01T00:27:22.720Z,4.93
2023-05-01T00:29:48.926Z,6.25
2023-05-01T00:32:15.261Z,4.25
2023-05-01T00:34:41.617Z,4.90
2023-05-01T00:37:07.953Z,3.60
2023-05-01T00:39:34.191Z,3.00
2023-05-01T00:42:08.074Z,5.65
2023-05-01T00:44:34.470Z,4.45
2023-05-01T00:47:00.741Z,3.03
2023-05-01T00:49:27.127Z,2.90
2023-05-01T00:51:53.542Z,4.22
2023-05-01T00:54:20.204Z,4.60
2023-05-01T00:56:50.860Z,3.10
2023-05-01T01:01:45.496Z,2.75
2023-05-01T01:04:11.953Z,5.18
2023-05-01T01:06:51.998Z,3.05
2023-05-01T01:09:37.944Z,4.63
2023-05-01T01:12:10.303Z,5.10
2023-05-01T01:14:40.488Z,5.00
2023-05-01T01:17:25.451Z,4.35
2023-05-01T01:20:17.593Z,3.60
2023-05-01T01:22:48.258Z,7.85
2023-05-01T01:27:59.872Z,3.70
2023-05-01T01:30:47.120Z,3.70
2023-05-01T01:33:29.167Z,3.13
2023-05-01T01:36:01.281Z,4.28
2023-05-01T01:38:39.113Z,4.65
2023-05-01T01:41:40.612Z,4.53
2023-05-01T01:44:12.747Z,4.03
2023-05-01T01:46:43.264Z,5.45
2023-05-01T01:51:37.893Z,4.07
2023-05-01T01:54:09.853Z,4.88
2023-05-01T01:56:37.078Z,5.53
2023-05-01T01:59:04.258Z,5.03
2023-05-01T02:01:35.009Z,5.55
2023-05-01T02:04:02.907Z,3.83
2023-05-01T02:06:32.516Z,4.53
2023-05-01T02:09:01.684Z,2.97
2023-05-01T02:11:30.065Z,5.10
2023-05-01T02:13:57.275Z,3.40
2023-05-01T02:16:24.030Z,4.40
2023-05-01T02:18:50.608Z,4.82
2023-05-01T02:21:18.190Z,5.25
2023-05-01T02:23:44.692Z,4.90
2023-05-01T02:26:13.583Z,4.60
2023-05-01T02:28:40.455Z,4.60
2023-05-01T02:31:06.837Z,5.43
2023-05-01T02:33:39.105Z,5.28
2023-05-01T02:36:05.664Z,4.00
2023-05-01T02:38:34.668Z,4.75
2023-05-01T02:41:01.957Z,5.00
2023-05-01T03:04:47.557Z,4.18
2023-05-01T03:07:16.852Z,5.60
2023-05-01T03:09:43.332Z,4.47
2023-05-01T03:12:09.586Z,6.30
2023-05-01T03:14:35.811Z,5.32
2023-05-01T03:17:04.573Z,3.60
2023-05-01T03:19:30.787Z,4.30
2023-05-01T03:22:04.622Z,5.85
2023-05-01T03:24:30.821Z,7.47
2023-05-01T03:27:00.033Z,4.45
2023-05-01T03:29:26.299Z,5.00
2023-05-01T03:31:54.587Z,5.60
2023-05-01T03:34:20.994Z,6.45
2023-05-01T03:36:47.263Z,4.35
2023-05-01T03:39:13.654Z,5.10
2023-05-01T03:41:45.308Z,4.90
2023-05-01T03:44:11.516Z,6.22
2023-05-01T03:46:37.896Z,4.95
2023-05-01T03:49:04.188Z,5.03
2023-05-01T03:51:30.468Z,4.05
2023-05-01T03:53:56.728Z,4.18
2023-05-01T03:56:23.018Z,7.22
2023-05-01T03:58:49.227Z,4.30
2023-05-01T04:01:15.431Z,6.03
2023-05-01T04:03:41.755Z,4.10
2023-05-01T04:06:08.210Z,4.57
2023-05-01T04:08:34.437Z,5.38
2023-05-01T04:11:00.635Z,4.47
2023-05-01T04:13:29.513Z,4.63
2023-05-01T04:15:55.826Z,5.45
2023-05-01T04:18:22.151Z,4.47
2023-05-01T04:20:48.532Z,4.20
2023-05-01T04:23:14.729Z,3.90
2023-05-01T04:25:41.142Z,4.55
2023-05-01T04:28:07.443Z,4.50
2023-05-01T04:30:35.140Z,4.70
2023-05-01T04:33:01.380Z,6.28
2023-05-01T04:35:27.658Z,5.03
2023-05-01T04:37:55.158Z,7.30
2023-05-01T04:40:21.354Z,5.03
2023-05-01T04:42:50.760Z,5.20
2023-05-01T04:45:17.042Z,6.35
2023-05-01T04:47:43.354Z,6.00
2023-05-01T04:50:09.922Z,5.03
2023-05-01T04:52:40.246Z,5.28
2023-05-01T04:55:07.001Z,6.03
2023-05-01T04:57:33.305Z,4.15
2023-05-01T05:00:00.724Z,5.72
2023-05-01T05:02:27.256Z,5.00
2023-05-01T05:04:53.471Z,5.45
2023-05-01T05:07:23.050Z,5.05
2023-05-01T05:09:49.354Z,4.13
2023-05-01T05:12:15.654Z,5.68
2023-05-01T05:14:43.352Z,3.83
2023-05-01T05:17:09.531Z,4.43
2023-05-01T05:19:36.971Z,6.20
2023-05-01T05:22:03.218Z,5.55
2023-05-01T05:24:30.821Z,4.18
2023-05-01T05:26:57.062Z,4.05
2023-05-01T05:29:25.565Z,4.53
2023-05-01T05:31:51.871Z,3.70
2023-05-01T05:34:20.444Z,5.20
2023-05-01T05:36:49.828Z,5.97
2023-05-01T05:39:16.091Z,4.80
2023-05-01T05:41:42.278Z,4.70
2023-05-01T05:44:08.553Z,4.45
2023-05-01T05:46:37.731Z,4.82
2023-05-01T05:49:06.688Z,4.60
2023-05-01T05:51:32.927Z,6.07
2023-05-01T05:53:59.199Z,7.90
2023-05-01T05:56:26.951Z,5.20
2023-05-01T05:58:55.687Z,5.43
2023-05-01T06:01:21.918Z,5.47
2023-05-01T06:03:48.137Z,7.20
2023-05-01T06:06:14.523Z,6.97
2023-05-01T06:08:40.774Z,8.13
2023-05-01T06:11:08.719Z,6.65
2023-05-01T06:13:35.043Z,8.32
2023-05-01T06:16:03.889Z,9.40
2023-05-01T06:18:30.372Z,7.10
2023-05-01T06:20:56.611Z,7.95
2023-05-01T06:23:22.806Z,9.88
2023-05-01T06:25:49.064Z,7.05
2023-05-01T06:28:15.319Z,7.72
2023-05-01T06:30:41.516Z,8.65
2023-05-01T06:33:14.755Z,7.43
2023-05-01T06:35:41.055Z,10.18
2023-05-01T06:38:07.375Z,6.55
2023-05-01T06:40:36.305Z,7.68
2023-05-01T06:43:10.213Z,10.02
2023-05-01T06:45:37.982Z,8.18
2023-05-01T06:48:04.445Z,7.88
2023-05-01T06:50:32.234Z,6.22
2023-05-01T06:52:58.625Z,10.05
2023-05-01T06:55:25.180Z,7.40
2023-05-01T06:57:54.471Z,7.57
2023-05-01T07:00:23.209Z,11.73
2023-05-01T07:02:50.824Z,7.25
2023-05-01T07:05:17.351Z,6.55
2023-05-01T07:07:50.467Z,5.85
2023-05-01T07:10:25.386Z,8.57
2023-05-01T07:12:53.924Z,6.95
2023-05-01T07:15:20.184Z,6.78
2023-05-01T07:17:46.564Z,9.82
2023-05-01T07:20:12.905Z,8.15
2023-05-01T07:22:39.196Z,9.32
2023-05-01T07:25:07.992Z,8.95
2023-05-01T07:27:37.156Z,9.98
2023-05-01T07:30:03.710Z,9.77
2023-05-01T07:32:30.058Z,7.38
2023-05-01T07:34:58.872Z,7.32
2023-05-01T07:37:25.093Z,10.65
2023-05-01T07:39:51.345Z,8.90
2023-05-01T07:42:18.737Z,7.80
2023-05-01T07:44:45.042Z,7.00
2023-05-01T07:47:14.193Z,8.60
2023-05-01T07:49:40.593Z,8.15
2023-05-01T07:52:06.897Z,8.07
2023-05-01T07:54:33.375Z,10.32
2023-05-01T07:56:59.774Z,7.55
2023-05-01T07:59:26.025Z,7.47
2023-05-01T08:01:52.583Z,10.10
2023-05-01T08:04:21.287Z,7.78
2023-05-01T08:06:48.585Z,6.68
2023-05-01T08:09:14.811Z,8.35
2023-05-01T08:11:42.839Z,9.18
2023-05-01T08:14:12.029Z,7.18
2023-05-01T08:16:39.437Z,6.90
2023-05-01T08:19:05.630Z,8.65
2023-05-01T08:21:31.985Z,7.45
2023-05-01T08:23:58.380Z,8.63
2023-05-01T08:26:24.803Z,7.20
2023-05-01T08:28:53.700Z,8.43
2023-05-01T08:31:19.944Z,8.50
2023-05-01T08:33:46.243Z,6.70
2023-05-01T08:36:14.903Z,8.43
2023-05-01T08:38:41.132Z,9.13
2023-05-01T08:41:08.049Z,8.80
2023-05-01T08:43:43.388Z,7.40
2023-05-01T08:46:09.606Z,9.45
2023-05-01T08:48:36.557Z,9.43
2023-05-01T08:51:05.939Z,11.35
2023-05-01T08:53:33.158Z,8.98
2023-05-01T08:56:00.137Z,11.35
2023-05-01T08:58:26.869Z,6.50
2023-05-01T09:00:53.214Z,8.18
2023-05-01T09:03:20.379Z,9.85
2023-05-01T09:05:46.807Z,12.20
2023-05-01T09:08:13.047Z,8.63
2023-05-01T09:10:41.180Z,7.35
2023-05-01T09:13:07.504Z,8.95
2023-05-01T09:15:33.948Z,9.30
2023-05-01T09:18:03.286Z,6.32
2023-05-01T09:20:30.977Z,10.05
2023-05-01T09:23:04.548Z,7.55
2023-05-01T09:25:32.658Z,8.25
2023-05-01T09:28:00.871Z,8.60
2023-05-01T09:30:30.942Z,8.13
2023-05-01T09:33:24.738Z,9.10
2023-05-01T09:35:51.919Z,7.82
2023-05-01T09:38:25.190Z,6.28
2023-05-01T09:40:52.999Z,6.75
2023-05-01T09:43:29.218Z,8.73
2023-05-01T09:46:02.012Z,9.50
2023-05-01T09:48:28.278Z,8.30
2023-05-01T09:50:54.488Z,7.47
2023-05-01T09:53:35.929Z,9.65
2023-05-01T09:56:02.238Z,4.25
2023-05-01T09:58:28.641Z,6.30
2023-05-01T10:00:57.546Z,8.70
2023-05-01T10:03:24.049Z,6.93
2023-05-01T10:05:50.436Z,5.35
2023-05-01T10:08:16.762Z,6.82
2023-05-01T10:10:43.095Z,9.30
2023-05-01T10:13:18.786Z,5.10
2023-05-01T10:15:45.169Z,5.63
2023-05-01T10:18:11.520Z,7.47
2023-05-01T10:20:37.740Z,5.50
2023-05-01T10:23:03.997Z,8.50
2023-05-01T10:25:32.631Z,6.13
2023-05-01T10:27:59.376Z,6.63
2023-05-01T10:30:25.982Z,5.38
2023-05-01T10:32:55.132Z,6.40
2023-05-01T10:35:23.754Z,6.72
2023-05-01T10:37:50.009Z,8.25
2023-05-01T10:40:35.175Z,4.95
2023-05-01T10:43:22.652Z,7.15
2023-05-01T10:45:50.326Z,6.03
2023-05-01T10:48:35.186Z,5.22
2023-05-01T10:51:09.907Z,4.40
2023-05-01T10:53:36.287Z,5.32
2023-05-01T10:56:03.352Z,6.80
2023-05-01T10:58:52.654Z,6.28
2023-05-01T11:01:37.982Z,4.20
2023-05-01T11:04:08.175Z,5.80
2023-05-01T11:06:36.917Z,5.43
2023-05-01T11:09:27.247Z,4.72
2023-05-01T11:11:53.541Z,5.72
2023-05-01T11:14:19.753Z,7.13
2023-05-01T11:16:49.212Z,6.53
2023-05-01T11:19:18.648Z,4.88
2023-05-01T11:21:49.303Z,6.55
2023-05-01T11:24:17.616Z,4.43
2023-05-01T11:26:43.867Z,7.13
2023-05-01T11:29:12.692Z,7.07
2023-05-01T11:31:46.433Z,6.38
2023-05-01T11:34:14.706Z,4.90
2023-05-01T11:36:48.023Z,5.90
2023-05-01T11:39:17.669Z,6.25
2023-05-01T11:41:44.345Z,4.60
2023-05-01T11:44:17.120Z,5.05
2023-05-01T11:46:45.821Z,3.65
2023-05-01T11:49:12.259Z,4.22
2023-05-01T11:51:38.646Z,4.15
2023-05-01T11:54:06.217Z,5.28
2023-05-01T11:56:34.520Z,4.68
2023-05-01T11:59:09.354Z,4.85
2023-05-01T12:01:39.297Z,3.65
2023-05-01T12:04:06.355Z,5.78
2023-05-01T12:06:39.137Z,5.28
2023-05-01T12:09:05.649Z,5.57
2023-05-01T12:11:32.106Z,4.85
2023-05-01T12:13:58.525Z,7.53
2023-05-01T12:16:26.558Z,6.57
2023-05-01T12:18:54.450Z,5.32
2023-05-01T12:21:20.655Z,6.75
2023-05-01T12:23:47.158Z,8.52
2023-05-01T12:26:20.118Z,7.53
2023-05-01T12:28:59.116Z,7.75
2023-05-01T12:31:26.115Z,7.97
2023-05-01T12:33:53.130Z,9.15
2023-05-01T12:36:20.636Z,9.57
2023-05-01T12:38:54.245Z,9.63
2023-05-01T12:41:24.815Z,8.32
2023-05-01T12:43:52.260Z,8.88
2023-05-01T12:46:23.219Z,8.05
2023-05-01T12:48:50.131Z,7.32
2023-05-01T12:51:20.693Z,10.00
2023-05-01T12:53:47.073Z,10.90
2023-05-01T12:56:24.412Z,8.48
2023-05-01T12:58:51.607Z,9.18
2023-05-01T13:01:24.600Z,6.95
2023-05-01T13:03:53.755Z,6.40
2023-05-01T13:06:20.104Z,9.05
2023-05-01T13:08:46.333Z,8.32
2023-05-01T13:11:13.697Z,6.57
2023-05-01T13:13:40.526Z,5.47
2023-05-01T13:16:08.134Z,8.68
2023-05-01T13:18:36.303Z,6.45
2023-05-01T13:21:09.595Z,7.88
2023-05-01T13:23:40.917Z,8.40
2023-05-01T13:26:09.369Z,10.25
2023-05-01T13:28:45.433Z,10.20
2023-05-01T13:31:14.709Z,7.55
2023-05-01T13:33:43.888Z,9.63
2023-05-01T13:36:24.537Z,8.13
2023-05-01T13:38:53.022Z,8.50
2023-05-01T13:41:30.167Z,6.57
2023-05-01T13:43:57.070Z,7.20
2023-05-01T13:46:25.500Z,8.55
2023-05-01T13:48:51.978Z,7.55
2023-05-01T13:51:25.455Z,9.60
2023-05-01T13:53:51.916Z,9.05
2023-05-01T13:56:20.604Z,7.97
2023-05-01T13:58:50.829Z,7.95
2023-05-01T14:03:46.353Z,7.35
2023-05-01T14:06:20.257Z,7.60
2023-05-01T14:08:47.832Z,8.57
2023-05-01T14:11:14.548Z,8.07
2023-05-01T14:13:43.905Z,8.32
2023-05-01T14:16:11.416Z,7.78
2023-05-01T14:18:47.287Z,8.85
2023-05-01T14:21:17.485Z,6.85
2023-05-01T14:23:44.696Z,5.65
2023-05-01T14:26:11.396Z,6.53
2023-05-01T14:28:40.960Z,6.35
2023-05-01T14:31:07.770Z,6.22
2023-05-01T14:33:34.085Z,5.75
2023-05-01T14:36:00.391Z,4.20
2023-05-01T14:38:27.042Z,7.18
2023-05-01T14:40:55.603Z,5.43
2023-05-01T14:43:24.327Z,4.45
2023-05-01T14:45:56.821Z,4.10
2023-05-01T14:48:23.748Z,6.40
2023-05-01T14:50:52.236Z,4.75
2023-05-01T14:53:18.453Z,5.88
2023-05-01T14:55:50.149Z,5.40
2023-05-01T14:58:16.352Z,4.40
2023-05-01T15:00:42.602Z,4.35
2023-05-01T15:03:11.475Z,4.53
2023-05-01T15:05:41.990Z,5.40
2023-05-01T15:08:09.048Z,4.63
2023-05-01T15:10:37.395Z,5.32
2023-05-01T15:13:03.718Z,4.25
2023-05-01T15:15:34.329Z,5.68
2023-05-01T15:18:04.309Z,4.15
2023-05-01T15:20:30.992Z,4.68
2023-05-01T15:22:59.718Z,7.97
2023-05-01T15:25:30.172Z,6.00
2023-05-01T15:28:00.617Z,4.97
2023-05-01T15:30:26.820Z,7.47
2023-05-01T15:32:53.353Z,6.63
2023-05-01T15:35:19.827Z,6.13
2023-05-01T15:37:46.105Z,4.97
2023-05-01T15:40:12.509Z,5.68
2023-05-01T15:42:38.917Z,5.18
2023-05-01T15:45:05.522Z,7.25
2023-05-01T15:47:31.857Z,5.13
2023-05-01T15:49:58.322Z,5.95
2023-05-01T15:52:24.789Z,5.22
2023-05-01T15:54:51.007Z,7.13
2023-05-01T15:57:17.264Z,6.57
2023-05-01T15:59:49.843Z,4.82
2023-05-01T16:02:16.151Z,5.88
2023-05-01T16:04:45.263Z,6.25
2023-05-01T16:07:14.230Z,4.72
2023-05-01T16:09:42.484Z,5.55
2023-05-01T16:12:14.507Z,5.15
2023-05-01T16:14:41.133Z,4.00
2023-05-01T16:17:08.076Z,5.55
2023-05-01T16:19:39.457Z,5.43
2023-05-01T16:22:06.234Z,7.05
2023-05-01T16:24:38.850Z,6.68
2023-05-01T16:27:07.357Z,6.68
2023-05-01T16:29:39.204Z,6.18
2023-05-01T16:32:05.561Z,6.25
2023-05-01T16:34:34.486Z,7.35
2023-05-01T16:37:03.311Z,5.35
2023-05-01T16:39:29.536Z,6.10
2023-05-01T16:41:55.776Z,6.03
2023-05-01T16:44:25.010Z,6.47
2023-05-01T16:46:52.371Z,8.00
2023-05-01T16:49:18.682Z,6.97
2023-05-01T16:51:48.060Z,8.40
2023-05-01T16:54:14.993Z,8.40
2023-05-01T16:56:43.739Z,11.85
2023-05-01T16:59:09.998Z,10.05
2023-05-01T17:01:36.292Z,10.55
2023-05-01T17:04:02.740Z,10.57
2023-05-01T17:06:31.600Z,10.63
2023-05-01T17:09:00.976Z,10.57
2023-05-01T17:11:28.593Z,10.98
2023-05-01T17:13:59.721Z,14.13
2023-05-01T17:16:26.061Z,11.77
2023-05-01T17:18:52.319Z,11.55
2023-05-01T17:21:18.567Z,11.18
2023-05-01T17:23:44.806Z,10.93
2023-05-01T17:26:11.056Z,11.65
2023-05-01T17:28:38.665Z,12.05
2023-05-01T17:31:04.888Z,12.68
2023-05-01T17:33:31.161Z,8.93
2023-05-01T17:35:58.653Z,11.77
2023-05-01T17:38:26.119Z,10.38
2023-05-01T17:40:52.339Z,12.98
2023-05-01T17:43:19.978Z,12.38
2023-05-01T17:45:46.479Z,9.07
2023-05-01T17:48:14.175Z,10.82
2023-05-01T17:50:40.473Z,10.85
2023-05-01T17:56:11.955Z,10.32
2023-05-01T17:58:45.768Z,10.70
2023-05-01T18:01:11.998Z,13.95
2023-05-01T18:03:38.324Z,12.60
2023-05-01T18:06:10.687Z,11.10
2023-05-01T18:08:41.952Z,11.23
2023-05-01T18:11:08.188Z,11.38
2023-05-01T18:13:35.602Z,13.00
2023-05-01T18:16:01.924Z,10.13
2023-05-01T18:18:30.743Z,12.55
2023-05-01T18:21:00.001Z,16.95
2023-05-01T18:23:26.282Z,13.95
2023-05-01T18:25:54.245Z,15.93
2023-05-01T18:28:20.460Z,14.82
2023-05-01T18:30:46.688Z,12.30
2023-05-01T18:33:14.944Z,16.02
2023-05-01T18:35:41.605Z,13.45
2023-05-01T18:38:08.321Z,15.40
2023-05-01T18:40:34.570Z,15.93
2023-05-01T18:43:05.071Z,15.70
2023-05-01T18:45:32.735Z,16.25
2023-05-01T18:48:03.922Z,16.90
2023-05-01T18:50:30.197Z,16.52
2023-05-01T18:52:56.821Z,18.35
2023-05-01T18:55:23.116Z,17.98
2023-05-01T18:57:49.381Z,17.88
2023-05-01T19:00:19.551Z,18.92
2023-05-01T19:02:45.833Z,21.70
2023-05-01T19:05:13.334Z,19.20
2023-05-01T19:07:39.685Z,19.65
2023-05-01T19:10:06.251Z,20.02
2023-05-01T19:12:32.536Z,21.30
2023-05-01T19:14:58.844Z,21.48
2023-05-01T19:17:25.124Z,21.30
2023-05-01T19:19:51.413Z,19.83
2023-05-01T19:22:21.510Z,20.08
2023-05-01T19:24:50.204Z,22.05
2023-05-01T19:27:16.481Z,20.70
2023-05-01T19:29:45.210Z,20.80
2023-05-01T19:32:17.160Z,22.75
2023-05-01T19:34:43.444Z,19.83
2023-05-01T19:37:09.704Z,20.42
2023-05-01T19:39:35.913Z,22.60
2023-05-01T19:42:02.238Z,21.65
2023-05-01T19:44:28.518Z,22.92
2023-05-01T19:46:54.743Z,21.60
2023-05-01T19:49:21.143Z,21.88
2023-05-01T19:51:47.336Z,23.20
2023-05-01T19:54:16.105Z,24.63
2023-05-01T19:56:42.309Z,20.75
2023-05-01T19:59:08.552Z,22.08
2023-05-01T20:01:34.889Z,20.23
2023-05-01T20:04:03.117Z,25.75
2023-05-01T20:06:29.587Z,26.85
2023-05-01T20:08:55.888Z,24.25
2023-05-01T20:11:22.099Z,25.48
2023-05-01T20:13:48.487Z,25.75
2023-05-01T20:16:14.726Z,26.52
2023-05-01T20:18:41.041Z,27.60
2023-05-01T20:21:07.366Z,28.77
2023-05-01T20:23:33.589Z,29.63
2023-05-01T20:26:00.228Z,29.73
2023-05-01T20:28:26.475Z,32.50
2023-05-01T20:30:52.839Z,29.10
2023-05-01T20:33:20.502Z,30.55
2023-05-01T20:35:46.826Z,29.45
2023-05-01T20:38:13.086Z,28.65
2023-05-01T20:40:41.782Z,31.20
2023-05-01T20:43:10.504Z,26.70
2023-05-01T20:45:37.946Z,27.90
2023-05-01T20:48:04.311Z,30.17
2023-05-01T20:50:30.533Z,30.63
2023-05-01T20:52:56.748Z,27.33
2023-05-01T20:55:23.387Z,26.95
2023-05-01T20:57:49.857Z,28.58
2023-05-01T21:00:18.126Z,31.27
2023-05-01T21:02:49.301Z,29.70
2023-05-01T21:05:15.563Z,29.88
2023-05-01T21:07:44.285Z,29.13
2023-05-01T21:10:11.158Z,29.10
2023-05-01T21:12:40.107Z,27.58
2023-05-01T21:15:08.664Z,26.80
2023-05-01T21:17:36.170Z,24.50
2023-05-01T21:20:04.365Z,26.13
2023-05-01T21:22:31.951Z,29.38
2023-05-01T21:25:00.854Z,29.02
2023-05-01T21:27:27.507Z,30.60
2023-05-01T21:29:58.598Z,31.55
2023-05-01T21:32:34.810Z,26.13
2023-05-01T21:35:03.849Z,30.75
2023-05-01T21:37:30.147Z,35.15
2023-05-01T21:40:00.047Z,27.83
2023-05-01T21:42:31.326Z,29.08
2023-05-01T21:44:58.638Z,32.50
2023-05-01T21:47:24.997Z,27.10
2023-05-01T21:49:55.692Z,33.22
2023-05-01T21:52:22.560Z,29.95
2023-05-01T21:54:48.997Z,26.75
2023-05-01T21:57:15.221Z,24.42
2023-05-01T21:59:43.978Z,24.80
2023-05-01T22:02:11.402Z,23.83
2023-05-01T22:04:38.076Z,21.88
2023-05-01T22:07:05.255Z,21.58
2023-05-01T22:09:31.941Z,23.88
2023-05-01T22:12:05.548Z,21.17
2023-05-01T22:14:46.219Z,19.23
2023-05-01T22:17:13.622Z,14.35
2023-05-01T22:19:39.853Z,16.73
2023-05-01T22:22:06.085Z,20.25
2023-05-01T22:24:32.312Z,17.13
2023-05-01T22:26:58.504Z,19.15
2023-05-01T22:29:24.686Z,20.08
2023-05-01T22:31:53.462Z,20.20
2023-05-01T22:34:25.578Z,17.25
2023-05-01T22:36:53.176Z,19.48
2023-05-01T22:39:19.378Z,17.70
2023-05-01T22:41:49.657Z,19.33
2023-05-01T22:44:15.853Z,20.27
2023-05-01T22:46:44.295Z,18.67
2023-05-01T22:49:13.568Z,18.85
2023-05-01T22:51:45.261Z,18.23
2023-05-01T22:54:13.720Z,19.13
2023-05-01T22:56:39.915Z,19.02
2023-05-01T22:59:10.628Z,19.05
2023-05-01T23:01:36.917Z,17.23
2023-05-01T23:04:03.338Z,17.45
2023-05-01T23:06:29.702Z,18.23
2023-05-01T23:08:56.027Z,16.15
2023-05-01T23:11:22.318Z,17.80
2023-05-01T23:13:51.442Z,16.40
2023-05-01T23:16:19.182Z,16.77
2023-05-01T23:18:45.544Z,18.40
2023-05-01T23:21:12.970Z,16.80
2023-05-01T23:23:40.718Z,18.98
2023-05-01T23:26:09.961Z,17.90
2023-05-01T23:28:42.571Z,17.23
2023-05-01T23:31:15.503Z,18.52
2023-05-01T23:33:42.646Z,18.10
2023-05-01T23:36:09.822Z,23.52
2023-05-01T23:38:36.102Z,21.17
2023-05-01T23:41:11.583Z,24.33
2023-05-01T23:43:40.246Z,22.77
2023-05-01T23:46:09.185Z,26.75
2023-05-01T23:48:37.414Z,24.63
2023-05-01T23:51:03.771Z,26.33
2023-05-01T23:53:30.149Z,30.10
2023-05-01T23:55:56.445Z,26.23
2023-05-01T23:58:23.117Z,28.58
